Accueil
METAR-TAF:

METAR-TAF

Aéroports :

Aéroport international de Nagasaki

Nagasaki, Japon

latitude: 32-55N, longitude: 129-55E, altitude: 2 m

Observation

Le bulletin a été fait il y a 34 minutes, à 09:00 UTC
Vent 9 kt de nord/nord-ouest
Température 26°C
Humidité 74%
Pression 1013 hPa
Visibilité 10 km ou plus
pas de nuages en-dessous de 1500 mètres et pas de cumulonimbus.

METAR: RJFU 220900Z 33009KT CAVOK 26/21 Q1013

Heure: 18:34 (09:34 UTC)

Prévision

Le bulletin a été fait il y a 4 heures et 26 minutes, à 05:08 UTC
Prévision valable du 22 à 06 UTC au 23 à 12 UTC
Vent 8 kt de nord
Visibilité 10 km ou plus
Quelques nuages à une hauteur de 3000 ft
Evoluant progressivement
du 22 à 15 UTC au 22 à 17 UTC
Vent 3 kt de est/sud-est
Evoluant progressivement
du 23 à 00 UTC au 23 à 03 UTC
Vent 5 kt de nord-ouest

TAF: RJFU 220508Z 2206/2312 35008KT 9999 FEW030 BECMG 2215/2217 12003KT BECMG 2300/2303 32005KT

Observations et prévisions météorologiques de plus de 4000 aéroports (messages METAR et TAF).

Les stations disponibles sont représentées par des disques jaunes et rouges sur la carte.

Passer la souris dessus pour voir le nom de la station.

Cliquer dessus pour voir les observations et prévisions météorologiques.

Pour changer de carte: cliquez sur les boutons verts avec une croix noire pour zoomer, sur le bouton vert avec un tiret pour effectuer un zoom arrière, ou sur les flèches vertes pour les cartes adjacentes.


METAR-TAF: